createdAt,value
2018-03-04T00:00:02.006Z,95.17
2018-03-04T00:02:29.582Z,97.33
2018-03-04T00:04:57.121Z,101.30
2018-03-04T00:07:24.664Z,103.90
2018-03-04T00:09:52.240Z,102.67
2018-03-04T00:12:19.811Z,96.93
2018-03-04T00:14:47.356Z,96.03
2018-03-04T00:17:15.724Z,87.57
2018-03-04T00:19:43.271Z,107.53
2018-03-04T00:22:10.821Z,98.10
2018-03-04T00:24:38.392Z,94.37
2018-03-04T00:27:06.039Z,98.50
2018-03-04T00:29:34.355Z,95.10
2018-03-04T00:32:01.929Z,100.73
2018-03-04T00:34:29.477Z,93.30
2018-03-04T00:36:57.020Z,101.23
2018-03-04T00:39:24.585Z,105.63
2018-03-04T00:41:52.131Z,103.30
2018-03-04T00:44:19.686Z,100.93
2018-03-04T00:46:48.057Z,104.97
2018-03-04T00:49:15.625Z,108.47
2018-03-04T00:51:43.173Z,98.43
2018-03-04T00:54:11.516Z,106.83
2018-03-04T00:56:39.056Z,102.63
2018-03-04T00:59:06.593Z,90.77
2018-03-04T01:01:34.184Z,106.40
2018-03-04T01:04:02.503Z,102.67
2018-03-04T01:06:30.040Z,103.00
2018-03-04T01:08:58.403Z,114.10
2018-03-04T01:11:25.944Z,104.20
2018-03-04T01:13:53.488Z,102.93
2018-03-04T01:16:21.072Z,106.60
2018-03-04T01:18:48.636Z,116.70
2018-03-04T01:21:16.191Z,115.10
2018-03-04T01:23:44.536Z,114.20
2018-03-04T01:26:12.083Z,105.17
2018-03-04T01:28:39.629Z,103.33
2018-03-04T01:31:07.452Z,108.80
2018-03-04T01:33:35.008Z,100.03
2018-03-04T01:36:02.559Z,111.13
2018-03-04T01:38:30.129Z,108.97
2018-03-04T01:40:57.668Z,116.20
2018-03-04T01:43:25.207Z,105.67
2018-03-04T01:45:52.773Z,113.43
2018-03-04T01:48:20.320Z,103.97
2018-03-04T01:50:47.876Z,103.40
2018-03-04T01:53:15.448Z,115.80
2018-03-04T01:55:42.991Z,115.30
2018-03-04T01:58:10.533Z,109.67
2018-03-04T02:00:38.108Z,123.13
2018-03-04T02:03:06.492Z,115.07
2018-03-04T02:05:34.042Z,116.30
2018-03-04T02:08:01.897Z,115.97
2018-03-04T02:10:29.440Z,118.80
2018-03-04T02:12:56.998Z,113.47
2018-03-04T02:15:24.580Z,119.83
2018-03-04T02:17:52.126Z,107.30
2018-03-04T02:20:19.686Z,118.07
2018-03-04T02:22:47.255Z,109.90
2018-03-04T02:25:15.589Z,119.27
2018-03-04T02:27:43.183Z,109.40
2018-03-04T02:30:10.734Z,107.43
2018-03-04T02:32:39.049Z,104.03
2018-03-04T02:35:06.622Z,111.07
2018-03-04T02:37:34.178Z,109.23
2018-03-04T02:40:02.521Z,110.40
2018-03-04T02:42:30.079Z,110.27
2018-03-04T02:44:57.628Z,102.87
2018-03-04T02:47:25.192Z,109.87
2018-03-04T02:49:52.748Z,105.63
2018-03-04T02:52:21.393Z,110.53
2018-03-04T02:54:48.952Z,109.47
2018-03-04T02:57:16.511Z,113.50
2018-03-04T02:59:44.094Z,109.33
2018-03-04T03:02:11.639Z,109.10
2018-03-04T03:04:39.976Z,107.33
2018-03-04T03:07:07.531Z,111.90
2018-03-04T03:09:35.547Z,104.83
2018-03-04T03:12:03.117Z,101.10
2018-03-04T03:14:30.664Z,103.37
2018-03-04T03:16:58.235Z,108.53
2018-03-04T03:19:25.781Z,113.53
2018-03-04T03:21:53.327Z,114.03
2018-03-04T03:24:21.649Z,108.47
2018-03-04T03:26:49.200Z,109.53
2018-03-04T03:31:52.272Z,104.70
2018-03-04T03:34:19.818Z,110.67
2018-03-04T03:36:47.411Z,108.20
2018-03-04T03:39:14.965Z,107.53
2018-03-04T03:41:42.509Z,101.47
2018-03-04T03:44:10.844Z,114.63
2018-03-04T03:46:38.388Z,105.80
2018-03-04T03:49:05.961Z,103.80
2018-03-04T03:51:33.514Z,106.87
2018-03-04T03:54:01.840Z,101.17
2018-03-04T03:56:29.408Z,112.17
2018-03-04T03:58:56.959Z,102.27
2018-03-04T04:01:24.531Z,105.83
2018-03-04T04:03:52.102Z,109.17
2018-03-04T04:06:19.656Z,104.43
2018-03-04T04:08:47.989Z,107.13
2018-03-04T04:11:15.540Z,111.57
2018-03-04T04:13:43.116Z,109.00
2018-03-04T04:16:10.664Z,119.87
2018-03-04T04:18:38.209Z,105.70
2018-03-04T04:21:05.771Z,105.23
2018-03-04T04:23:33.320Z,105.03
2018-03-04T04:26:00.888Z,112.50
2018-03-04T04:28:28.436Z,106.67
2018-03-04T04:30:55.992Z,108.53
2018-03-04T04:33:23.572Z,118.43
2018-03-04T04:35:51.116Z,104.00
2018-03-04T04:38:18.755Z,109.27
2018-03-04T04:40:47.060Z,107.23
2018-03-04T04:43:15.368Z,98.60
2018-03-04T04:45:42.924Z,110.63
2018-03-04T04:48:10.464Z,105.67
2018-03-04T04:50:38.032Z,107.20
2018-03-04T04:53:05.576Z,102.07
2018-03-04T04:55:33.119Z,110.00
2018-03-04T04:58:00.685Z,103.43
2018-03-04T05:00:28.692Z,108.37
2018-03-04T05:02:56.256Z,105.90
2018-03-04T05:05:23.792Z,105.43
2018-03-04T05:07:52.100Z,103.67
2018-03-04T05:10:19.660Z,105.37
2018-03-04T05:12:47.225Z,107.50
2018-03-04T05:15:15.862Z,103.43
2018-03-04T05:17:43.404Z,111.10
2018-03-04T05:20:10.940Z,108.50
2018-03-04T05:22:38.500Z,102.80
2018-03-04T05:25:06.055Z,109.13
2018-03-04T05:27:33.623Z,102.97
2018-03-04T05:30:01.160Z,108.80
2018-03-04T05:32:28.917Z,105.03
2018-03-04T05:34:57.248Z,106.93
2018-03-04T05:37:24.785Z,112.03
2018-03-04T05:39:53.114Z,105.87
2018-03-04T05:42:20.652Z,107.23
2018-03-04T05:44:48.185Z,110.10
2018-03-04T05:47:16.296Z,107.23
2018-03-04T05:49:44.658Z,112.30
2018-03-04T05:52:12.507Z,103.53
2018-03-04T05:54:40.056Z,110.93
2018-03-04T05:57:07.624Z,107.10
2018-03-04T05:59:35.775Z,114.40
2018-03-04T06:02:03.313Z,109.53
2018-03-04T06:04:30.888Z,102.37
2018-03-04T06:06:58.431Z,109.37
2018-03-04T06:09:25.968Z,115.67
2018-03-04T06:11:54.290Z,113.37
2018-03-04T06:14:21.826Z,95.27
2018-03-04T06:16:50.152Z,119.17
2018-03-04T06:19:17.696Z,119.23
2018-03-04T06:21:46.014Z,111.73
2018-03-04T06:24:13.584Z,110.90
2018-03-04T06:26:41.119Z,118.17
2018-03-04T06:29:09.536Z,117.53
2018-03-04T06:31:37.093Z,120.53
2018-03-04T06:34:04.689Z,114.57
2018-03-04T06:36:32.248Z,112.17
2018-03-04T06:38:59.794Z,114.40
2018-03-04T06:41:28.172Z,112.07
2018-03-04T06:43:55.708Z,110.00
2018-03-04T06:46:23.244Z,109.13
2018-03-04T06:48:50.799Z,112.47
2018-03-04T06:51:19.099Z,121.13
2018-03-04T06:53:47.469Z,117.23
2018-03-04T06:56:15.871Z,116.70
2018-03-04T06:58:44.171Z,102.67
2018-03-04T07:01:11.733Z,110.73
2018-03-04T07:03:40.033Z,109.10
2018-03-04T07:06:07.596Z,106.37
2018-03-04T07:08:35.900Z,103.60
2018-03-04T07:11:04.351Z,101.33
2018-03-04T07:13:31.912Z,107.07
2018-03-04T07:15:59.460Z,109.30
2018-03-04T07:18:27.027Z,101.03
2018-03-04T07:20:54.560Z,94.33
2018-03-04T07:23:22.864Z,103.20
2018-03-04T07:25:50.553Z,95.40
2018-03-04T07:28:18.087Z,94.63
2018-03-04T07:30:46.447Z,100.03
2018-03-04T07:33:13.987Z,90.50
2018-03-04T07:35:41.524Z,86.90
2018-03-04T07:38:09.103Z,85.33
2018-03-04T07:40:37.533Z,90.33
2018-03-04T07:43:05.332Z,87.33
2018-03-04T07:45:32.863Z,87.30
2018-03-04T07:48:00.409Z,85.87
2018-03-04T07:50:28.731Z,84.10
2018-03-04T07:52:56.267Z,84.30
2018-03-04T07:55:24.606Z,83.70
2018-03-04T07:57:52.141Z,79.93
2018-03-04T08:00:19.677Z,76.27
2018-03-04T08:02:48.288Z,78.50
2018-03-04T08:05:16.619Z,70.60
2018-03-04T08:07:44.464Z,75.63
2018-03-04T08:10:12.759Z,72.10
2018-03-04T08:12:40.304Z,72.70
2018-03-04T08:15:07.859Z,73.30
2018-03-04T08:17:35.391Z,74.87
2018-03-04T08:20:02.967Z,77.83
2018-03-04T08:22:30.500Z,75.50
2018-03-04T08:25:11.292Z,77.73
2018-03-04T08:27:51.350Z,75.50
2018-03-04T08:30:19.989Z,78.60
2018-03-04T08:32:47.537Z,69.40
2018-03-04T08:35:15.120Z,78.57
2018-03-04T08:37:42.677Z,75.63
2018-03-04T08:40:10.227Z,75.00
2018-03-04T08:42:38.548Z,70.60
2018-03-04T08:45:06.093Z,68.97
2018-03-04T08:47:33.623Z,67.23
2018-03-04T08:50:01.184Z,61.97
2018-03-04T08:52:28.727Z,63.43
2018-03-04T08:54:56.301Z,62.67
2018-03-04T08:57:23.836Z,58.47
2018-03-04T08:59:51.367Z,58.47
2018-03-04T09:02:19.733Z,59.13
2018-03-04T09:04:47.271Z,58.13
2018-03-04T09:07:15.592Z,63.97
2018-03-04T09:09:43.172Z,66.23
2018-03-04T09:12:10.712Z,67.17
2018-03-04T09:14:39.251Z,63.00
2018-03-04T09:17:06.779Z,60.43
2018-03-04T09:19:35.125Z,67.90
2018-03-04T09:22:02.664Z,70.00
2018-03-04T09:24:30.218Z,67.00
2018-03-04T09:26:57.782Z,67.97
2018-03-04T09:29:26.128Z,69.77
2018-03-04T09:31:53.761Z,65.23
2018-03-04T09:34:22.062Z,63.47
2018-03-04T09:36:49.616Z,67.57
2018-03-04T09:39:17.173Z,59.57
2018-03-04T09:41:45.475Z,65.53
2018-03-04T09:44:14.583Z,63.43
2018-03-04T09:46:42.139Z,65.63
2018-03-04T09:49:10.444Z,59.83
2018-03-04T09:51:38.013Z,60.63
2018-03-04T09:54:05.548Z,56.73
2018-03-04T09:56:33.424Z,58.67
2018-03-04T09:59:01.756Z,53.53
2018-03-04T10:01:29.295Z,53.43
2018-03-04T10:03:56.856Z,51.10
2018-03-04T10:06:24.472Z,50.73
2018-03-04T10:08:52.049Z,52.20
2018-03-04T10:11:19.615Z,50.40
2018-03-04T10:13:47.599Z,46.60
2018-03-04T10:16:15.174Z,46.97
2018-03-04T10:18:42.728Z,48.27
2018-03-04T10:21:10.300Z,46.97
2018-03-04T10:23:37.859Z,45.07
2018-03-04T10:26:06.170Z,47.67
2018-03-04T10:28:33.731Z,46.17
2018-03-04T10:31:02.037Z,47.93
2018-03-04T10:33:29.608Z,45.73
2018-03-04T10:35:57.151Z,49.87
2018-03-04T10:38:25.501Z,46.83
2018-03-04T10:40:53.044Z,46.40
2018-03-04T10:43:20.592Z,46.17
2018-03-04T10:45:48.160Z,43.83
2018-03-04T10:48:16.469Z,45.67
2018-03-04T10:50:44.244Z,45.10
2018-03-04T10:53:11.883Z,42.60
2018-03-04T10:55:40.300Z,44.93
2018-03-04T10:58:08.645Z,43.73
2018-03-04T11:00:41.924Z,43.87
2018-03-04T11:03:09.487Z,44.27
2018-03-04T11:05:37.068Z,42.37
2018-03-04T11:08:05.294Z,41.60
2018-03-04T11:10:32.883Z,39.37
2018-03-04T11:13:01.186Z,41.73
2018-03-04T11:15:29.049Z,44.77
2018-03-04T11:17:57.555Z,45.77
2018-03-04T11:20:28.102Z,41.77
2018-03-04T11:22:55.756Z,45.07
2018-03-04T11:25:24.128Z,42.13
2018-03-04T11:27:51.690Z,40.17
2018-03-04T11:30:19.285Z,40.40
2018-03-04T11:32:47.672Z,40.47
2018-03-04T11:35:16.017Z,41.10
2018-03-04T11:37:43.602Z,39.53
2018-03-04T11:40:11.143Z,40.83
2018-03-04T11:42:38.751Z,36.27
2018-03-04T11:45:06.348Z,37.10
2018-03-04T11:47:34.672Z,34.80
2018-03-04T11:50:02.242Z,32.97
2018-03-04T11:52:29.804Z,31.33
2018-03-04T11:54:57.369Z,33.77
2018-03-04T11:57:25.672Z,36.17
2018-03-04T11:59:53.208Z,34.53
2018-03-04T12:02:21.540Z,33.20
2018-03-04T12:04:49.083Z,33.83
2018-03-04T12:07:17.700Z,34.83
2018-03-04T12:09:45.268Z,32.13
2018-03-04T12:12:12.853Z,32.93
2018-03-04T12:14:40.471Z,33.20
2018-03-04T12:17:08.158Z,34.87
2018-03-04T12:19:35.742Z,34.03
2018-03-04T12:22:04.063Z,32.70
2018-03-04T12:24:31.603Z,31.23
2018-03-04T12:26:59.971Z,31.30
2018-03-04T12:29:27.526Z,30.53
2018-03-04T12:31:55.103Z,30.13
2018-03-04T12:34:22.683Z,30.97
2018-03-04T12:36:50.252Z,29.90
2018-03-04T12:39:18.589Z,31.57
2018-03-04T12:41:46.899Z,29.20
2018-03-04T12:44:14.530Z,24.87
2018-03-04T12:46:42.076Z,26.73
2018-03-04T12:49:09.648Z,26.20
2018-03-04T12:51:37.276Z,26.17
2018-03-04T12:54:04.816Z,24.70
2018-03-04T12:56:32.391Z,24.73
2018-03-04T12:58:59.932Z,24.90
2018-03-04T13:01:27.509Z,21.43
2018-03-04T13:03:55.095Z,22.77
2018-03-04T13:06:22.640Z,23.03
2018-03-04T13:08:50.236Z,21.30
2018-03-04T13:11:17.780Z,21.37
2018-03-04T13:13:45.319Z,21.47
2018-03-04T13:16:12.922Z,20.10
2018-03-04T13:18:40.479Z,19.63
2018-03-04T13:21:08.053Z,20.47
2018-03-04T13:23:35.597Z,19.37
2018-03-04T13:26:03.164Z,18.37
2018-03-04T13:28:31.503Z,19.00
2018-03-04T13:30:59.052Z,19.90
2018-03-04T13:33:26.640Z,20.83
2018-03-04T13:35:54.180Z,19.47
2018-03-04T13:38:21.720Z,19.77
2018-03-04T13:40:49.668Z,22.50
2018-03-04T13:43:17.209Z,19.47
2018-03-04T13:45:44.815Z,17.70
2018-03-04T13:48:12.413Z,16.60
2018-03-04T13:50:39.961Z,19.57
2018-03-04T13:53:07.551Z,17.43
2018-03-04T13:55:35.107Z,18.17
2018-03-04T13:58:02.693Z,18.33
2018-03-04T14:00:30.243Z,18.40
2018-03-04T14:02:57.788Z,16.37
2018-03-04T14:05:25.352Z,16.60
2018-03-04T14:07:52.899Z,16.07
2018-03-04T14:10:21.239Z,16.10
2018-03-04T14:12:48.783Z,14.83
2018-03-04T14:15:16.328Z,16.00
2018-03-04T14:17:43.973Z,15.00
2018-03-04T14:20:11.561Z,15.13
2018-03-04T14:22:39.136Z,15.53
2018-03-04T14:25:07.461Z,16.37
2018-03-04T14:27:34.999Z,13.80
2018-03-04T14:30:03.334Z,12.90
2018-03-04T14:32:30.887Z,12.47
2018-03-04T14:34:58.467Z,13.80
2018-03-04T14:37:26.009Z,16.20
2018-03-04T14:39:53.552Z,13.60
2018-03-04T14:42:21.167Z,13.43
2018-03-04T14:44:49.476Z,14.17
2018-03-04T14:47:17.044Z,13.27
2018-03-04T14:49:44.604Z,14.60
2018-03-04T14:52:12.147Z,13.67
2018-03-04T14:54:40.484Z,12.77
2018-03-04T14:57:08.028Z,13.47
2018-03-04T14:59:36.200Z,13.77
2018-03-04T15:02:04.511Z,11.97
2018-03-04T15:04:32.053Z,13.70
2018-03-04T15:07:00.387Z,12.80
2018-03-04T15:09:27.929Z,13.10
2018-03-04T15:11:55.497Z,14.37
2018-03-04T15:14:23.821Z,15.23
2018-03-04T15:16:51.975Z,13.57
2018-03-04T15:19:19.512Z,12.97
2018-03-04T15:21:47.081Z,13.03
2018-03-04T15:24:14.624Z,15.57
2018-03-04T15:26:42.175Z,12.73
2018-03-04T15:29:09.740Z,12.83
2018-03-04T15:31:37.280Z,11.80
2018-03-04T15:34:05.609Z,14.17
2018-03-04T15:36:33.156Z,13.93
2018-03-04T15:39:01.481Z,14.47
2018-03-04T15:41:29.031Z,15.13
2018-03-04T15:43:56.609Z,13.00
2018-03-04T15:46:24.151Z,12.70
2018-03-04T15:48:52.462Z,14.13
2018-03-04T15:51:20.068Z,13.27
2018-03-04T15:53:47.609Z,13.93
2018-03-04T15:56:15.173Z,12.53
2018-03-04T15:58:42.712Z,14.50
2018-03-04T16:01:10.317Z,12.13
2018-03-04T16:03:37.860Z,16.90
2018-03-04T16:06:06.166Z,13.30
2018-03-04T16:08:33.729Z,12.10
2018-03-04T16:11:02.126Z,13.87
2018-03-04T16:13:29.693Z,13.63
2018-03-04T16:15:58.001Z,12.93
2018-03-04T16:18:25.584Z,13.33
2018-03-04T16:20:53.124Z,15.13
2018-03-04T16:23:21.428Z,17.60
2018-03-04T16:25:48.987Z,15.07
2018-03-04T16:28:17.294Z,14.47
2018-03-04T16:30:44.860Z,14.60
2018-03-04T16:33:12.396Z,14.50
2018-03-04T16:35:39.980Z,15.77
2018-03-04T16:38:08.284Z,14.87
2018-03-04T16:40:36.588Z,15.57
2018-03-04T16:43:04.178Z,17.10
2018-03-04T16:45:31.719Z,14.83
2018-03-04T16:47:59.579Z,16.00
2018-03-04T16:50:27.904Z,14.53
2018-03-04T16:52:55.476Z,16.57
2018-03-04T16:55:23.011Z,14.83
2018-03-04T16:57:51.328Z,15.87
2018-03-04T17:00:18.945Z,14.17
2018-03-04T17:02:46.460Z,16.63
2018-03-04T17:05:14.025Z,16.53
2018-03-04T17:07:42.332Z,18.43
2018-03-04T17:10:10.005Z,18.87
2018-03-04T17:12:37.545Z,16.17
2018-03-04T17:15:05.851Z,19.47
2018-03-04T17:17:33.415Z,18.47
2018-03-04T17:20:01.716Z,20.60
2018-03-04T17:22:29.284Z,18.80
2018-03-04T17:24:56.832Z,24.17
2018-03-04T17:27:24.408Z,24.30
2018-03-04T17:29:52.716Z,28.10
2018-03-04T17:32:20.255Z,27.17
2018-03-04T17:34:47.880Z,29.40
2018-03-04T17:37:15.507Z,30.73
2018-03-04T17:39:43.007Z,28.33
2018-03-04T17:42:10.556Z,29.83
2018-03-04T17:44:38.879Z,27.53
2018-03-04T17:47:06.412Z,27.17
2018-03-04T17:49:34.748Z,24.03
2018-03-04T17:52:02.297Z,22.47
2018-03-04T17:54:29.860Z,22.63
2018-03-04T17:56:58.729Z,25.23
2018-03-04T17:59:26.268Z,25.97
2018-03-04T18:01:53.831Z,27.00
2018-03-04T18:04:21.374Z,27.47
2018-03-04T18:06:49.714Z,27.73
2018-03-04T18:09:18.025Z,26.97
2018-03-04T18:11:45.563Z,29.20
2018-03-04T18:14:13.124Z,30.63
2018-03-04T18:16:40.672Z,32.13
2018-03-04T18:19:08.232Z,33.40
2018-03-04T18:21:36.538Z,34.77
2018-03-04T18:24:04.113Z,34.53
2018-03-04T18:26:31.652Z,33.43
2018-03-04T18:28:59.957Z,35.33
2018-03-04T18:31:28.284Z,37.87
2018-03-04T18:33:55.829Z,36.63
2018-03-04T18:36:23.401Z,40.73
2018-03-04T18:38:50.955Z,42.30
2018-03-04T18:41:19.287Z,43.13
2018-03-04T18:43:46.870Z,42.30
2018-03-04T18:46:14.412Z,46.83
2018-03-04T18:48:41.976Z,45.47
2018-03-04T18:51:09.516Z,47.00
2018-03-04T18:53:37.852Z,43.20
2018-03-04T18:56:05.400Z,47.33
2018-03-04T18:58:32.972Z,48.10
2018-03-04T19:01:00.508Z,54.33
2018-03-04T19:03:28.059Z,47.33
2018-03-04T19:05:56.395Z,50.43
2018-03-04T19:08:24.706Z,56.30
2018-03-04T19:10:52.281Z,55.27
2018-03-04T19:13:19.820Z,57.97
2018-03-04T19:15:48.252Z,60.07
2018-03-04T19:18:15.847Z,57.27
2018-03-04T19:20:43.447Z,58.67
2018-03-04T19:23:11.008Z,61.87
2018-03-04T19:25:39.354Z,58.67
2018-03-04T19:28:06.933Z,57.90
2018-03-04T19:30:34.468Z,54.57
2018-03-04T19:33:02.079Z,60.83
2018-03-04T19:35:29.612Z,58.07
2018-03-04T19:37:57.193Z,51.93
2018-03-04T19:40:24.763Z,52.57
2018-03-04T19:42:52.303Z,61.63
2018-03-04T19:45:19.871Z,55.33
2018-03-04T19:47:47.413Z,57.23
2018-03-04T19:50:14.960Z,54.57
2018-03-04T19:52:42.564Z,53.17
2018-03-04T19:55:10.092Z,63.17
2018-03-04T19:57:37.658Z,60.57
2018-03-04T20:00:05.212Z,56.73
2018-03-04T20:02:33.560Z,51.80
2018-03-04T20:05:01.172Z,50.10
2018-03-04T20:07:29.529Z,53.77
2018-03-04T20:09:57.112Z,50.33
2018-03-04T20:12:24.657Z,49.23
2018-03-04T20:14:53.004Z,52.83
2018-03-04T20:17:21.315Z,52.03
2018-03-04T20:19:48.891Z,47.23
2018-03-04T20:22:16.497Z,49.83
2018-03-04T20:24:44.045Z,51.20
2018-03-04T20:27:11.605Z,48.93
2018-03-04T20:29:39.140Z,47.93
2018-03-04T20:32:07.489Z,50.43
2018-03-04T20:34:35.028Z,49.53
2018-03-04T20:37:02.604Z,48.80
2018-03-04T20:39:30.140Z,53.73
2018-03-04T20:41:58.446Z,51.27
2018-03-04T20:44:26.081Z,52.43
2018-03-04T20:46:53.622Z,52.80
2018-03-04T20:49:21.192Z,48.67
2018-03-04T20:51:48.736Z,50.47
2018-03-04T20:54:16.309Z,48.97
2018-03-04T20:56:43.897Z,48.17
2018-03-04T20:59:11.440Z,49.50
2018-03-04T21:01:39.003Z,51.10
2018-03-04T21:04:07.315Z,55.50
2018-03-04T21:06:34.878Z,50.47
2018-03-04T21:09:02.421Z,47.90
2018-03-04T21:11:30.005Z,48.00
2018-03-04T21:13:58.312Z,47.53
2018-03-04T21:16:25.847Z,47.47
2018-03-04T21:18:53.405Z,45.83
2018-03-04T21:21:20.949Z,50.47
2018-03-04T21:23:48.528Z,46.97
2018-03-04T21:26:16.065Z,51.70
2018-03-04T21:28:43.645Z,48.47
2018-03-04T21:31:11.222Z,46.00
2018-03-04T21:33:38.773Z,47.47
2018-03-04T21:36:06.349Z,46.97
2018-03-04T21:38:33.888Z,47.43
2018-03-04T21:41:01.448Z,51.40
2018-03-04T21:43:29.027Z,48.10
2018-03-04T21:45:56.612Z,49.40
2018-03-04T21:48:24.933Z,48.53
2018-03-04T21:50:52.472Z,44.03
2018-03-04T21:53:20.800Z,44.23
2018-03-04T21:55:48.341Z,42.07
2018-03-04T21:58:16.679Z,39.33
2018-03-04T22:00:44.220Z,41.10
2018-03-04T22:03:11.799Z,42.10
2018-03-04T22:05:39.352Z,41.70
2018-03-04T22:08:06.905Z,38.03
2018-03-04T22:10:35.307Z,37.70
2018-03-04T22:13:03.610Z,34.57
2018-03-04T22:15:31.176Z,36.77
2018-03-04T22:17:58.713Z,35.37
2018-03-04T22:20:26.300Z,32.03
2018-03-04T22:22:54.608Z,36.37
2018-03-04T22:25:22.148Z,34.63
2018-03-04T22:27:49.712Z,32.03
2018-03-04T22:30:17.269Z,28.60
2018-03-04T22:32:44.840Z,28.50
2018-03-04T22:35:12.384Z,33.37
2018-03-04T22:37:39.928Z,31.17
2018-03-04T22:40:08.284Z,30.77
2018-03-04T22:42:35.817Z,32.33
2018-03-04T22:45:03.376Z,30.83
2018-03-04T22:47:30.918Z,28.17
2018-03-04T22:49:59.263Z,25.00
2018-03-04T22:52:26.805Z,26.90
2018-03-04T22:54:54.356Z,27.87
2018-03-04T22:57:22.801Z,28.50
2018-03-04T22:59:50.316Z,25.30
2018-03-04T23:02:18.644Z,20.73
2018-03-04T23:04:46.180Z,21.33
2018-03-04T23:07:14.518Z,20.53
2018-03-04T23:09:42.069Z,19.43
2018-03-04T23:12:09.608Z,16.43
2018-03-04T23:14:37.937Z,12.40
2018-03-04T23:17:05.475Z,10.23
2018-03-04T23:19:33.800Z,9.33
2018-03-04T23:22:01.340Z,8.70
2018-03-04T23:24:28.975Z,6.20
2018-03-04T23:26:56.497Z,6.50
2018-03-04T23:29:24.031Z,6.80
2018-03-04T23:31:52.352Z,4.90
2018-03-04T23:34:19.901Z,5.17
2018-03-04T23:36:48.220Z,5.50
2018-03-04T23:39:15.761Z,4.60
2018-03-04T23:41:44.084Z,4.83
2018-03-04T23:44:11.625Z,5.03
2018-03-04T23:46:39.184Z,4.00
2018-03-04T23:49:07.504Z,3.50
2018-03-04T23:51:35.061Z,4.43
2018-03-04T23:54:02.653Z,4.47
2018-03-04T23:56:30.190Z,4.73
2018-03-04T23:58:58.521Z,2.90
